createdAt,value
2019-05-07T00:02:04.575Z,83.23
2019-05-07T00:05:08.965Z,81.52
2019-05-07T00:08:13.232Z,79.91
2019-05-07T00:11:17.916Z,79.51
2019-05-07T00:14:23.112Z,83.29
2019-05-07T00:17:27.423Z,84.78
2019-05-07T00:20:32.691Z,86.40
2019-05-07T00:23:37.223Z,87.00
2019-05-07T00:26:43.004Z,87.47
2019-05-07T00:29:49.066Z,88.15
2019-05-07T00:32:53.324Z,88.52
2019-05-07T00:36:12.454Z,88.73
2019-05-07T00:39:53.950Z,88.99
2019-05-07T00:43:12.050Z,89.39
2019-05-07T00:46:19.393Z,89.76
2019-05-07T00:49:25.264Z,89.82
2019-05-07T00:52:29.539Z,89.94
2019-05-07T00:55:33.854Z,89.84
2019-05-07T00:58:38.141Z,89.07
2019-05-07T01:01:43.207Z,88.43
2019-05-07T01:04:47.652Z,88.30
2019-05-07T01:07:52.885Z,87.79
2019-05-07T01:10:57.383Z,87.76
2019-05-07T01:14:02.765Z,87.76
2019-05-07T01:17:07.135Z,87.80
2019-05-07T01:20:12.567Z,87.85
2019-05-07T01:23:16.962Z,87.53
2019-05-07T01:26:22.049Z,88.14
2019-05-07T01:29:26.405Z,88.48
2019-05-07T01:32:53.307Z,88.99
2019-05-07T01:36:14.766Z,89.27
2019-05-07T01:39:19.045Z,89.38
2019-05-07T01:42:23.363Z,89.63
2019-05-07T01:45:27.616Z,89.70
2019-05-07T01:48:32.418Z,89.65
2019-05-07T01:51:36.733Z,89.71
2019-05-07T01:54:42.558Z,89.67
2019-05-07T01:57:46.921Z,89.46
2019-05-07T02:00:53.235Z,89.37
2019-05-07T02:04:15.846Z,89.03
2019-05-07T02:07:25.988Z,88.49
2019-05-07T02:10:35.148Z,88.40
2019-05-07T02:13:39.412Z,88.26
2019-05-07T02:16:43.698Z,88.07
2019-05-07T02:19:49.167Z,88.34
2019-05-07T02:22:53.448Z,88.53
2019-05-07T02:25:57.742Z,88.61
2019-05-07T02:29:02.739Z,88.82
2019-05-07T02:32:07.103Z,89.04
2019-05-07T02:35:13.512Z,89.29
2019-05-07T02:38:23.430Z,89.34
2019-05-07T02:41:33.089Z,88.86
2019-05-07T02:44:55.531Z,88.62
2019-05-07T02:47:59.842Z,88.07
2019-05-07T02:51:13.118Z,87.97
2019-05-07T02:54:23.857Z,87.98
2019-05-07T02:57:28.267Z,87.71
2019-05-07T03:00:33.341Z,87.55
2019-05-07T03:03:37.919Z,87.19
2019-05-07T03:06:44.337Z,87.26
2019-05-07T03:09:48.195Z,86.58
2019-05-07T03:12:53.670Z,85.99
2019-05-07T03:15:58.100Z,86.33
2019-05-07T03:19:04.087Z,87.02
2019-05-07T03:22:08.337Z,88.02
2019-05-07T03:25:22.490Z,88.89
2019-05-07T03:28:26.523Z,89.31
2019-05-07T03:31:48.590Z,90.16
2019-05-07T03:35:08.341Z,90.67
2019-05-07T03:38:13.290Z,91.00
2019-05-07T03:41:19.239Z,91.25
2019-05-07T03:44:44.517Z,91.52
2019-05-07T03:47:54.135Z,91.66
2019-05-07T03:50:58.547Z,91.81
2019-05-07T03:54:03.178Z,91.94
2019-05-07T03:57:11.063Z,92.05
2019-05-07T04:00:14.083Z,92.04
2019-05-07T04:03:19.725Z,91.97
2019-05-07T04:06:24.374Z,91.77
2019-05-07T04:09:28.635Z,91.67
2019-05-07T04:12:34.220Z,91.60
2019-05-07T04:15:38.705Z,91.47
2019-05-07T04:18:43.946Z,91.49
2019-05-07T04:21:48.470Z,91.30
2019-05-07T04:25:13.155Z,91.31
2019-05-07T04:28:36.357Z,91.11
2019-05-07T04:31:43.653Z,90.56
2019-05-07T04:34:57.281Z,90.62
2019-05-07T04:38:06.170Z,90.21
2019-05-07T04:41:08.667Z,89.99
2019-05-07T04:44:14.108Z,89.34
2019-05-07T04:47:34.665Z,88.28
2019-05-07T04:50:41.449Z,87.14
2019-05-07T04:53:33.765Z,86.19
2019-05-07T04:56:38.057Z,85.87
2019-05-07T04:59:42.982Z,85.75
2019-05-07T05:03:09.161Z,85.74
2019-05-07T05:06:13.894Z,85.52
2019-05-07T05:09:18.239Z,84.98
2019-05-07T05:12:23.150Z,84.99
2019-05-07T05:15:27.590Z,84.97
2019-05-07T05:18:32.955Z,85.06
2019-05-07T05:21:47.568Z,85.03
2019-05-07T05:25:11.973Z,85.37
2019-05-07T05:28:15.916Z,85.55
2019-05-07T05:31:22.153Z,84.64
2019-05-07T05:34:26.288Z,84.04
2019-05-07T05:37:32.139Z,84.26
2019-05-07T05:40:36.510Z,84.06
2019-05-07T05:43:58.346Z,83.54
2019-05-07T05:47:02.823Z,82.82
2019-05-07T05:50:09.074Z,82.64
2019-05-07T05:53:22.334Z,81.99
2019-05-07T05:56:37.445Z,81.47
2019-05-07T06:00:06.828Z,81.59
2019-05-07T06:03:33.177Z,80.65
2019-05-07T06:07:11.069Z,79.40
2019-05-07T06:10:22.427Z,79.25
2019-05-07T06:13:38.568Z,78.30
2019-05-07T06:17:04.938Z,78.45
2019-05-07T06:20:43.819Z,76.83
2019-05-07T06:23:53.281Z,76.73
2019-05-07T06:26:57.711Z,75.36
2019-05-07T06:30:04.870Z,74.83
2019-05-07T06:33:08.619Z,73.35
2019-05-07T06:36:13.205Z,74.24
2019-05-07T06:39:22.916Z,73.77
2019-05-07T06:42:45.090Z,74.74
2019-05-07T06:45:52.049Z,75.18
2019-05-07T06:48:56.761Z,75.47
2019-05-07T06:52:03.044Z,74.87
2019-05-07T06:55:07.487Z,74.08
2019-05-07T06:58:12.327Z,74.69
2019-05-07T07:01:32.315Z,74.84
2019-05-07T07:04:55.966Z,73.35
2019-05-07T07:08:04.829Z,72.89
2019-05-07T07:11:16.432Z,73.02
2019-05-07T07:14:22.763Z,74.05
2019-05-07T07:17:27.072Z,73.36
2019-05-07T07:20:32.658Z,73.62
2019-05-07T07:23:37.048Z,74.90
2019-05-07T07:26:42.227Z,74.57
2019-05-07T07:29:53.449Z,74.43
2019-05-07T07:32:58.902Z,74.75
2019-05-07T07:36:03.380Z,73.10
2019-05-07T07:39:08.885Z,72.54
2019-05-07T07:42:13.374Z,71.47
2019-05-07T07:45:18.370Z,70.39
2019-05-07T07:48:24.922Z,68.67
2019-05-07T07:51:40.582Z,67.41
2019-05-07T07:54:34.759Z,67.34
2019-05-07T07:57:52.070Z,67.74
2019-05-07T08:01:13.230Z,67.06
2019-05-07T08:04:19.164Z,68.06
2019-05-07T08:07:24.839Z,68.34
2019-05-07T08:10:32.567Z,66.70
2019-05-07T08:13:36.978Z,66.39
2019-05-07T08:16:42.960Z,67.11
2019-05-07T08:19:47.457Z,68.57
2019-05-07T08:22:52.617Z,70.83
2019-05-07T08:25:57.049Z,71.56
2019-05-07T08:29:02.926Z,71.86
2019-05-07T08:32:38.424Z,70.86
2019-05-07T08:35:47.255Z,69.91
2019-05-07T08:38:57.810Z,70.53
2019-05-07T08:42:02.204Z,69.78
2019-05-07T08:45:25.727Z,68.26
2019-05-07T08:48:38.369Z,65.87
2019-05-07T08:51:42.739Z,64.56
2019-05-07T08:54:47.022Z,69.25
2019-05-07T08:57:52.506Z,72.79
2019-05-07T09:00:56.787Z,75.44
2019-05-07T09:04:02.491Z,74.98
2019-05-07T09:07:06.842Z,74.37
2019-05-07T09:10:12.671Z,74.68
2019-05-07T09:13:17.014Z,74.08
2019-05-07T09:16:23.276Z,73.06
2019-05-07T09:19:27.330Z,71.64
2019-05-07T09:22:32.442Z,70.16
2019-05-07T09:25:47.466Z,69.60
2019-05-07T09:29:25.701Z,68.65
2019-05-07T09:32:35.760Z,68.24
2019-05-07T09:35:44.436Z,67.69
2019-05-07T09:38:58.366Z,65.84
2019-05-07T09:41:54.791Z,63.02
2019-05-07T09:44:59.117Z,63.02
2019-05-07T09:48:03.426Z,60.60
2019-05-07T09:51:07.741Z,62.33
2019-05-07T09:54:12.722Z,59.33
2019-05-07T09:57:30.023Z,61.08
2019-05-07T10:00:25.418Z,62.38
2019-05-07T10:03:29.709Z,65.14
2019-05-07T10:06:34.014Z,66.18
2019-05-07T10:09:38.349Z,66.14
2019-05-07T10:12:52.617Z,66.12
2019-05-07T10:15:56.923Z,66.26
2019-05-07T10:19:01.217Z,64.52
2019-05-07T10:22:05.519Z,64.66
2019-05-07T10:25:11.977Z,64.45
2019-05-07T10:28:16.037Z,65.70
2019-05-07T10:31:22.240Z,62.17
2019-05-07T10:34:26.405Z,61.36
2019-05-07T10:37:31.875Z,61.14
2019-05-07T10:40:36.286Z,58.87
2019-05-07T10:43:42.764Z,56.90
2019-05-07T10:47:05.850Z,55.23
2019-05-07T10:50:35.280Z,55.85
2019-05-07T10:53:28.466Z,55.85
2019-05-07T10:56:32.821Z,54.61
2019-05-07T10:59:37.095Z,54.08
2019-05-07T11:02:42.566Z,52.98
2019-05-07T11:05:46.931Z,53.32
2019-05-07T11:08:51.898Z,54.53
2019-05-07T11:11:56.230Z,55.78
2019-05-07T11:15:02.167Z,55.50
2019-05-07T11:18:12.671Z,54.89
2019-05-07T11:21:19.744Z,55.78
2019-05-07T11:24:24.002Z,56.66
2019-05-07T11:27:28.282Z,56.92
2019-05-07T11:30:32.602Z,55.68
2019-05-07T11:33:37.534Z,55.43
2019-05-07T11:36:43.002Z,55.68
2019-05-07T11:39:47.278Z,55.47
2019-05-07T11:43:15.313Z,55.57
2019-05-07T11:46:27.001Z,56.17
2019-05-07T11:49:48.711Z,56.82
2019-05-07T11:52:57.466Z,56.29
2019-05-07T11:56:02.493Z,58.05
2019-05-07T11:59:07.097Z,57.81
2019-05-07T12:02:12.138Z,58.13
2019-05-07T12:05:16.406Z,57.42
2019-05-07T12:08:22.418Z,56.52
2019-05-07T12:11:26.705Z,55.91
2019-05-07T12:14:34.322Z,57.45
2019-05-07T12:17:37.041Z,56.43
2019-05-07T12:20:41.327Z,56.51
2019-05-07T12:23:45.602Z,57.14
2019-05-07T12:26:52.182Z,55.64
2019-05-07T12:29:56.289Z,54.92
2019-05-07T12:33:09.432Z,51.40
2019-05-07T12:36:14.220Z,51.35
2019-05-07T12:39:18.521Z,49.04
2019-05-07T12:42:22.863Z,46.11
2019-05-07T12:45:27.161Z,46.11
2019-05-07T12:48:31.446Z,45.63
2019-05-07T12:51:42.712Z,47.36
2019-05-07T12:55:05.993Z,48.51
2019-05-07T12:58:12.467Z,49.63
2019-05-07T13:01:26.965Z,56.12
2019-05-07T13:04:32.522Z,58.91
2019-05-07T13:08:01.616Z,59.61
2019-05-07T13:11:06.031Z,59.25
2019-05-07T13:14:12.444Z,58.86
2019-05-07T13:17:16.331Z,56.45
2019-05-07T13:20:22.523Z,55.05
2019-05-07T13:23:26.660Z,55.80
2019-05-07T13:26:32.183Z,55.80
2019-05-07T13:29:36.609Z,55.59
2019-05-07T13:32:44.677Z,56.05
2019-05-07T13:35:48.745Z,57.39
2019-05-07T13:39:02.534Z,57.39
2019-05-07T13:42:25.712Z,57.54
2019-05-07T13:45:44.490Z,56.04
2019-05-07T13:48:48.964Z,56.57
2019-05-07T13:52:03.270Z,56.54
2019-05-07T13:54:59.718Z,54.90
2019-05-07T13:58:04.035Z,51.82
2019-05-07T14:01:25.505Z,51.79
2019-05-07T14:04:29.791Z,51.79
2019-05-07T14:07:35.734Z,47.30
2019-05-07T14:10:40.083Z,47.29
2019-05-07T14:13:44.384Z,47.24
2019-05-07T14:16:48.684Z,48.69
2019-05-07T14:19:53.262Z,48.38
2019-05-07T14:22:57.550Z,49.79
2019-05-07T14:26:02.028Z,49.81
2019-05-07T14:29:06.370Z,50.67
2019-05-07T14:32:25.674Z,50.88
2019-05-07T14:35:57.787Z,50.88
2019-05-07T14:39:02.503Z,52.12
2019-05-07T14:42:09.191Z,51.16
2019-05-07T14:45:13.892Z,50.93
2019-05-07T14:48:18.185Z,51.33
2019-05-07T14:51:22.589Z,52.03
2019-05-07T14:54:26.966Z,52.03
2019-05-07T14:57:32.539Z,53.93
2019-05-07T15:00:37.053Z,54.31
2019-05-07T15:03:42.330Z,54.19
2019-05-07T15:06:47.305Z,54.35
2019-05-07T15:09:51.987Z,54.49
2019-05-07T15:12:56.347Z,52.78
2019-05-07T15:16:02.933Z,52.70
2019-05-07T15:19:06.955Z,52.48
2019-05-07T15:22:49.457Z,52.79
2019-05-07T15:25:51.732Z,53.05
2019-05-07T15:29:01.632Z,50.70
2019-05-07T15:32:12.568Z,49.76
2019-05-07T15:35:16.916Z,50.63
2019-05-07T15:38:21.689Z,49.56
2019-05-07T15:41:26.063Z,48.90
2019-05-07T15:44:30.512Z,46.79
2019-05-07T15:47:42.019Z,46.98
2019-05-07T15:50:46.142Z,45.32
2019-05-07T15:53:53.055Z,46.73
2019-05-07T15:57:01.793Z,46.34
2019-05-07T16:00:09.164Z,45.53
2019-05-07T16:03:18.862Z,45.53
2019-05-07T16:06:23.934Z,45.36
2019-05-07T16:09:32.636Z,44.33
2019-05-07T16:12:37.013Z,44.63
2019-05-07T16:15:42.358Z,43.82
2019-05-07T16:19:12.457Z,44.31
2019-05-07T16:22:23.804Z,45.33
2019-05-07T16:25:28.130Z,44.05
2019-05-07T16:28:32.530Z,43.75
2019-05-07T16:31:36.800Z,43.78
2019-05-07T16:34:42.961Z,43.95
2019-05-07T16:37:47.136Z,45.70
2019-05-07T16:40:52.223Z,46.36
2019-05-07T16:43:56.585Z,48.46
2019-05-07T16:47:02.805Z,49.04
2019-05-07T16:50:07.632Z,48.06
2019-05-07T16:53:16.244Z,46.56
2019-05-07T16:56:17.989Z,46.66
2019-05-07T16:59:24.728Z,45.80
2019-05-07T17:02:32.152Z,46.21
2019-05-07T17:05:37.715Z,46.31
2019-05-07T17:08:55.819Z,46.59
2019-05-07T17:12:01.793Z,47.41
2019-05-07T17:15:06.880Z,47.82
2019-05-07T17:18:11.814Z,47.99
2019-05-07T17:21:16.045Z,47.81
2019-05-07T17:24:22.212Z,47.47
2019-05-07T17:27:26.360Z,48.50
2019-05-07T17:30:31.984Z,49.34
2019-05-07T17:33:36.395Z,49.54
2019-05-07T17:36:42.152Z,49.49
2019-05-07T17:39:46.640Z,50.05
2019-05-07T17:42:52.518Z,51.33
2019-05-07T17:45:56.911Z,51.33
2019-05-07T17:49:02.415Z,51.73
2019-05-07T17:52:06.877Z,49.37
2019-05-07T17:55:13.090Z,50.90
2019-05-07T17:58:17.361Z,52.37
2019-05-07T18:01:26.280Z,52.67
2019-05-07T18:04:33.772Z,53.30
2019-05-07T18:07:37.519Z,54.15
2019-05-07T18:10:42.396Z,53.83
2019-05-07T18:13:46.911Z,53.84
2019-05-07T18:17:12.946Z,54.55
2019-05-07T18:20:17.398Z,54.67
2019-05-07T18:23:22.275Z,54.03
2019-05-07T18:26:34.004Z,54.11
2019-05-07T18:29:38.400Z,54.33
2019-05-07T18:32:47.234Z,53.65
2019-05-07T18:35:52.534Z,53.98
2019-05-07T18:38:57.010Z,54.14
2019-05-07T18:42:02.847Z,54.11
2019-05-07T18:45:07.778Z,54.72
2019-05-07T18:48:12.878Z,55.14
2019-05-07T18:51:17.321Z,54.61
2019-05-07T18:54:30.633Z,55.58
2019-05-07T18:57:27.863Z,55.55
2019-05-07T19:00:35.911Z,56.81
2019-05-07T19:03:42.019Z,56.58
2019-05-07T19:06:46.568Z,57.42
2019-05-07T19:09:53.034Z,58.48
2019-05-07T19:12:59.720Z,58.74
2019-05-07T19:16:04.172Z,58.82
2019-05-07T19:19:08.618Z,58.73
2019-05-07T19:22:15.251Z,59.23
2019-05-07T19:25:19.801Z,60.08
2019-05-07T19:28:24.422Z,60.16
2019-05-07T19:31:29.022Z,60.78
2019-05-07T19:34:33.622Z,60.92
2019-05-07T19:37:38.189Z,61.30
2019-05-07T19:40:42.863Z,62.22
2019-05-07T19:43:49.696Z,62.59
2019-05-07T19:46:54.194Z,63.06
2019-05-07T19:49:58.665Z,63.36
2019-05-07T19:53:03.133Z,62.88
2019-05-07T19:56:21.917Z,62.19
2019-05-07T19:59:26.613Z,62.65
2019-05-07T20:02:36.307Z,63.04
2019-05-07T20:05:41.923Z,62.40
2019-05-07T20:08:46.556Z,61.99
2019-05-07T20:11:52.350Z,62.27
2019-05-07T20:15:00.018Z,61.88
2019-05-07T20:18:04.443Z,61.53
2019-05-07T20:21:08.941Z,61.86
2019-05-07T20:24:14.708Z,62.69
2019-05-07T20:27:19.232Z,63.56
2019-05-07T20:30:26.636Z,64.69
2019-05-07T20:33:32.717Z,65.14
2019-05-07T20:36:37.581Z,64.86
2019-05-07T20:39:42.667Z,64.56
2019-05-07T20:42:47.134Z,64.29
2019-05-07T20:45:51.907Z,64.27
2019-05-07T20:48:56.415Z,64.49
2019-05-07T20:52:00.825Z,64.13
2019-05-07T20:55:28.140Z,64.63
2019-05-07T20:58:25.014Z,64.89
2019-05-07T21:01:29.777Z,65.51
2019-05-07T21:04:34.173Z,67.31
2019-05-07T21:07:38.484Z,66.90
2019-05-07T21:10:42.841Z,65.46
2019-05-07T21:13:47.199Z,65.22
2019-05-07T21:16:51.939Z,65.02
2019-05-07T21:19:56.367Z,66.41
2019-05-07T21:23:02.643Z,67.19
2019-05-07T21:26:06.689Z,68.31
2019-05-07T21:29:13.446Z,69.82
2019-05-07T21:32:17.140Z,70.83
2019-05-07T21:35:22.393Z,71.97
2019-05-07T21:38:26.858Z,73.75
2019-05-07T21:41:33.246Z,75.41
2019-05-07T21:44:37.173Z,76.18
2019-05-07T21:47:41.487Z,77.33
2019-05-07T21:50:45.767Z,77.85
2019-05-07T21:53:57.876Z,79.10
2019-05-07T21:57:22.042Z,80.01
2019-05-07T22:00:43.460Z,81.14
2019-05-07T22:03:52.369Z,81.91
2019-05-07T22:06:56.815Z,83.83
2019-05-07T22:10:02.287Z,83.80
2019-05-07T22:13:06.681Z,84.19
2019-05-07T22:16:13.094Z,84.02
2019-05-07T22:19:17.765Z,83.87
2019-05-07T22:22:24.223Z,83.96
2019-05-07T22:25:28.016Z,84.25
2019-05-07T22:28:32.985Z,84.67
2019-05-07T22:32:08.194Z,84.44
2019-05-07T22:35:16.727Z,84.37
2019-05-07T22:38:22.798Z,84.70
2019-05-07T22:41:27.218Z,85.02
2019-05-07T22:44:32.253Z,85.72
2019-05-07T22:47:36.951Z,86.08
2019-05-07T22:50:42.120Z,86.78
2019-05-07T22:53:47.719Z,86.88
2019-05-07T22:57:14.220Z,87.35
2019-05-07T23:00:32.140Z,87.35
2019-05-07T23:03:36.355Z,87.56
2019-05-07T23:06:41.547Z,87.83
2019-05-07T23:09:46.186Z,87.84
2019-05-07T23:12:50.636Z,88.08
2019-05-07T23:15:54.941Z,88.18
2019-05-07T23:18:59.215Z,88.28
2019-05-07T23:22:03.521Z,88.48
2019-05-07T23:25:07.951Z,88.75
2019-05-07T23:28:12.638Z,88.81
2019-05-07T23:31:17.008Z,88.86
2019-05-07T23:34:21.961Z,88.95
2019-05-07T23:37:26.560Z,89.02
2019-05-07T23:40:44.906Z,88.35
2019-05-07T23:44:06.576Z,88.00
2019-05-07T23:47:12.184Z,87.93
2019-05-07T23:50:16.510Z,88.06
2019-05-07T23:53:22.492Z,88.34
2019-05-07T23:56:26.853Z,88.37
2019-05-07T23:59:32.833Z,88.16
